Time;durP1;ratioP1;P1;durP2;ratioP2;P2;SDS_P1;SDS_P2;PMS_P1;PMS_P2;Temp;Humidity;BMP_temperature;BMP_pressure;BME280_temperature;BME280_humidity;BME280_pressure;Samples;Min_cycle;Max_cycle;Signal;HPM_P1;HPM_P2
2022/11/10 00:01:57;;;;;;;;;;;16.10;99.90;;;;;;5064217;28;19923;-72
2022/11/10 00:04:23;;;;;;;;;;;16.10;99.90;;;;;;5078389;28;19917;-72
2022/11/10 00:06:49;;;;;;;;;;;16.10;99.90;;;;;;5084742;28;20454;-72
2022/11/10 00:09:14;;;;;;;;;;;16.20;99.90;;;;;;5075283;28;19931;-72
2022/11/10 00:11:41;;;;;;;;;;;16.10;99.90;;;;;;5081930;28;19912;-73
2022/11/10 00:17:00;;;;;;;;;;;16.10;99.90;;;;;;5073986;28;19919;-73
2022/11/10 00:19:30;;;;;;;;;;;16.00;99.90;;;;;;5073633;28;19955;-72
2022/11/10 00:21:56;;;;;;;;;;;16.10;99.90;;;;;;5057614;28;20501;-72
2022/11/10 00:24:22;;;;;;;;;;;16.20;99.90;;;;;;5055942;28;19917;-72
2022/11/10 00:26:47;;;;;;;;;;;16.20;99.90;;;;;;5082930;28;19919;-72
2022/11/10 00:29:13;;;;;;;;;;;16.30;99.90;;;;;;5072101;28;20312;-73
2022/11/10 00:31:39;;;;;;;;;;;16.30;99.90;;;;;;5079813;28;19909;-72
2022/11/10 00:34:06;;;;;;;;;;;16.30;99.90;;;;;;5077486;28;19973;-72
2022/11/10 00:36:33;;;;;;;;;;;16.20;99.90;;;;;;5080752;28;19908;-72
2022/11/10 00:38:58;;;;;;;;;;;16.30;99.90;;;;;;5094637;28;19920;-72
2022/11/10 00:41:24;;;;;;;;;;;16.30;99.90;;;;;;5097050;28;19908;-72
2022/11/10 00:43:50;;;;;;;;;;;16.30;99.90;;;;;;5096955;28;19946;-72
2022/11/10 00:46:15;;;;;;;;;;;16.20;99.90;;;;;;5069990;28;20428;-72
2022/11/10 00:48:41;;;;;;;;;;;16.20;99.90;;;;;;5089641;28;19913;-72
2022/11/10 00:51:08;;;;;;;;;;;16.10;99.90;;;;;;5075143;28;19916;-72
2022/11/10 00:53:34;;;;;;;;;;;16.20;99.90;;;;;;5076731;28;19908;-72
2022/11/10 00:56:00;;;;;;;;;;;16.20;99.90;;;;;;5082942;28;19908;-72
2022/11/10 00:58:25;;;;;;;;;;;16.10;99.90;;;;;;5089164;28;20353;-72
2022/11/10 01:00:59;;;;;;;;;;;16.10;99.90;;;;;;5078542;28;20409;-72
2022/11/10 01:03:25;;;;;;;;;;;16.10;99.90;;;;;;5075367;28;19912;-72
2022/11/10 01:05:50;;;;;;;;;;;16.10;99.90;;;;;;5084186;28;19918;-72
2022/11/10 01:08:16;;;;;;;;;;;16.10;99.90;;;;;;5078311;28;19965;-72
2022/11/10 01:10:42;;;;;;;;;;;16.10;99.90;;;;;;5096822;28;20350;-72
2022/11/10 01:13:08;;;;;;;;;;;16.10;99.90;;;;;;5095010;28;20330;-72
2022/11/10 01:15:37;;;;;;;;;;;16.10;99.90;;;;;;5087503;28;19916;-73
2022/11/10 01:18:02;;;;;;;;;;;16.10;99.90;;;;;;5083225;28;19908;-72
2022/11/10 01:20:28;;;;;;;;;;;16.10;99.90;;;;;;5057692;28;19913;-72
2022/11/10 01:22:54;;;;;;;;;;;16.10;99.90;;;;;;5075352;28;19912;-72
2022/11/10 01:25:19;;;;;;;;;;;16.20;99.90;;;;;;5072766;28;20362;-72
2022/11/10 01:27:45;;;;;;;;;;;16.20;99.90;;;;;;5077234;28;20281;-73
2022/11/10 01:30:11;;;;;;;;;;;16.20;99.90;;;;;;5079997;28;19928;-72
2022/11/10 01:32:36;;;;;;;;;;;16.20;99.90;;;;;;5057275;28;19908;-72
2022/11/10 01:35:02;;;;;;;;;;;16.20;99.90;;;;;;5061352;28;20405;-72
2022/11/10 01:37:28;;;;;;;;;;;16.30;99.90;;;;;;5095567;28;19908;-72
2022/11/10 01:39:54;;;;;;;;;;;16.30;99.90;;;;;;5095678;28;20532;-73
2022/11/10 01:42:27;;;;;;;;;;;16.30;99.90;;;;;;5090646;28;19928;-73
2022/11/10 01:45:11;;;;;;;;;;;16.30;99.90;;;;;;5077445;28;20345;-73
2022/11/10 01:47:37;;;;;;;;;;;16.30;99.90;;;;;;5095641;28;19979;-72
2022/11/10 01:50:03;;;;;;;;;;;16.30;99.90;;;;;;5095707;28;20401;-72
2022/11/10 01:52:28;;;;;;;;;;;16.30;99.90;;;;;;5074161;28;20388;-73
2022/11/10 01:54:54;;;;;;;;;;;16.30;99.90;;;;;;5086507;28;19940;-72
2022/11/10 01:57:19;;;;;;;;;;;16.30;99.90;;;;;;5073875;28;19919;-72
2022/11/10 01:59:47;;;;;;;;;;;16.20;99.90;;;;;;5072868;28;19931;-72
2022/11/10 02:02:19;;;;;;;;;;;16.20;99.90;;;;;;5054970;28;19977;-73
2022/11/10 02:04:46;;;;;;;;;;;16.20;99.90;;;;;;5066558;28;19912;-73
2022/11/10 02:07:11;;;;;;;;;;;16.30;99.90;;;;;;5076267;28;20290;-73
2022/11/10 02:09:37;;;;;;;;;;;16.40;99.90;;;;;;5095348;28;19908;-73
2022/11/10 02:12:03;;;;;;;;;;;16.30;99.90;;;;;;5091264;28;19931;-72
2022/11/10 02:14:28;;;;;;;;;;;16.30;99.90;;;;;;5077030;28;19972;-72
2022/11/10 02:16:55;;;;;;;;;;;16.30;99.90;;;;;;5081666;28;19951;-73
2022/11/10 02:19:21;;;;;;;;;;;16.30;99.90;;;;;;5077119;28;20053;-72
2022/11/10 02:21:47;;;;;;;;;;;16.30;99.90;;;;;;5094571;28;19997;-72
2022/11/10 02:24:13;;;;;;;;;;;16.40;99.90;;;;;;5091312;28;21705;-73
2022/11/10 02:26:42;;;;;;;;;;;16.40;99.90;;;;;;5076018;28;19912;-72
2022/11/10 02:29:08;;;;;;;;;;;16.30;99.90;;;;;;5075629;28;19915;-72
2022/11/10 02:31:34;;;;;;;;;;;16.30;99.90;;;;;;5056472;28;19913;-72
2022/11/10 02:33:59;;;;;;;;;;;16.30;99.90;;;;;;5073930;28;19982;-72
2022/11/10 02:36:25;;;;;;;;;;;16.50;99.90;;;;;;5082425;28;20003;-72
2022/11/10 02:38:51;;;;;;;;;;;16.70;99.90;;;;;;5066202;28;19909;-72
2022/11/10 02:41:16;;;;;;;;;;;16.70;99.90;;;;;;5092891;28;19916;-72
2022/11/10 02:43:42;;;;;;;;;;;16.70;99.90;;;;;;5076582;28;19965;-72
2022/11/10 02:46:08;;;;;;;;;;;16.60;99.90;;;;;;5058853;28;19909;-72
2022/11/10 02:48:33;;;;;;;;;;;16.70;99.90;;;;;;5088848;28;20286;-72
2022/11/10 02:50:59;;;;;;;;;;;16.60;99.90;;;;;;5094514;28;19999;-72
2022/11/10 02:53:25;;;;;;;;;;;16.60;99.90;;;;;;5094764;28;19916;-72
2022/11/10 02:55:50;;;;;;;;;;;16.60;99.90;;;;;;5083664;28;19908;-72
2022/11/10 02:58:16;;;;;;;;;;;16.60;99.90;;;;;;5081399;28;19943;-72
2022/11/10 03:00:41;;;;;;;;;;;16.60;99.90;;;;;;5084866;28;19912;-72
2022/11/10 03:03:07;;;;;;;;;;;16.60;99.90;;;;;;5056030;28;20421;-73
2022/11/10 03:05:33;;;;;;;;;;;16.50;99.90;;;;;;5079182;28;19912;-72
2022/11/10 03:08:00;;;;;;;;;;;16.50;99.90;;;;;;5085471;28;20026;-72
2022/11/10 03:10:26;;;;;;;;;;;16.60;99.90;;;;;;5094293;28;19984;-72
2022/11/10 03:12:59;;;;;;;;;;;16.60;99.90;;;;;;5081373;28;19920;-72
2022/11/10 03:15:25;;;;;;;;;;;16.50;99.90;;;;;;5093666;28;20353;-72
2022/11/10 03:17:51;;;;;;;;;;;16.40;99.90;;;;;;5094021;28;19908;-72
2022/11/10 03:20:17;;;;;;;;;;;16.40;99.90;;;;;;5076067;28;20383;-72
2022/11/10 03:22:42;;;;;;;;;;;16.40;99.90;;;;;;5084472;28;19912;-72
2022/11/10 03:25:09;;;;;;;;;;;16.40;99.90;;;;;;5081599;28;20333;-72
2022/11/10 03:27:34;;;;;;;;;;;16.50;99.90;;;;;;5076213;28;19912;-72
2022/11/10 03:30:03;;;;;;;;;;;16.60;99.90;;;;;;5062230;28;19919;-72
2022/11/10 03:32:29;;;;;;;;;;;16.60;99.90;;;;;;5078367;28;20084;-72
2022/11/10 03:34:55;;;;;;;;;;;16.60;99.90;;;;;;5075894;28;20366;-72
2022/11/10 03:37:21;;;;;;;;;;;16.60;99.90;;;;;;5076052;28;19954;-72
2022/11/10 03:39:46;;;;;;;;;;;16.50;99.90;;;;;;5076476;28;19908;-71
2022/11/10 03:42:12;;;;;;;;;;;16.60;99.90;;;;;;5084518;28;19920;-72
2022/11/10 03:44:38;;;;;;;;;;;16.50;99.90;;;;;;5060844;28;19908;-72
2022/11/10 03:47:04;;;;;;;;;;;16.40;99.90;;;;;;5073175;28;20500;-72
2022/11/10 03:49:30;;;;;;;;;;;16.30;99.90;;;;;;5074004;28;19915;-72
2022/11/10 03:51:56;;;;;;;;;;;16.30;99.90;;;;;;5073387;28;19913;-72
2022/11/10 03:54:21;;;;;;;;;;;16.50;99.90;;;;;;5085179;28;19914;-72
2022/11/10 03:56:47;;;;;;;;;;;16.50;99.90;;;;;;5093420;28;19912;-72
2022/11/10 03:59:13;;;;;;;;;;;16.40;99.90;;;;;;5072421;28;19938;-72
2022/11/10 04:01:38;;;;;;;;;;;16.40;99.90;;;;;;5077051;28;19912;-72
2022/11/10 04:04:04;;;;;;;;;;;16.50;99.90;;;;;;5078755;28;19941;-72
2022/11/10 04:09:28;;;;;;;;;;;16.40;99.90;;;;;;5033794;28;19987;-72
2022/11/10 04:17:22;;;;;;;;;;;16.50;99.90;;;;;;5097079;28;19953;-72
2022/11/10 04:19:47;;;;;;;;;;;16.40;99.90;;;;;;5088448;28;20442;-72
2022/11/10 04:23:25;;;;;;;;;;;16.60;99.90;;;;;;5087374;28;19920;-72
2022/11/10 04:24:58;;;;;;;;;;;16.60;99.90;;;;;;5088467;28;19916;-72
2022/11/10 04:27:24;;;;;;;;;;;16.60;99.90;;;;;;5096960;28;19908;-72
2022/11/10 04:29:50;;;;;;;;;;;16.50;99.90;;;;;;5089681;28;20282;-72
2022/11/10 04:32:15;;;;;;;;;;;16.40;99.90;;;;;;5088513;28;19908;-72
2022/11/10 04:34:41;;;;;;;;;;;16.40;99.90;;;;;;5097083;28;19908;-72
2022/11/10 04:37:07;;;;;;;;;;;16.50;99.90;;;;;;5078741;28;19957;-72
2022/11/10 04:39:32;;;;;;;;;;;16.60;99.90;;;;;;5092913;28;20007;-72
2022/11/10 04:41:58;;;;;;;;;;;16.70;99.90;;;;;;5084471;28;19966;-72
2022/11/10 04:44:24;;;;;;;;;;;16.80;99.90;;;;;;5088080;28;19923;-72
2022/11/10 04:46:50;;;;;;;;;;;16.80;99.90;;;;;;5087824;28;19908;-71
2022/11/10 04:49:15;;;;;;;;;;;16.70;99.90;;;;;;5097087;28;19962;-72
2022/11/10 04:51:41;;;;;;;;;;;16.80;99.90;;;;;;5051945;28;20348;-72
2022/11/10 04:54:07;;;;;;;;;;;16.80;99.90;;;;;;5080680;28;19909;-72
2022/11/10 04:56:33;;;;;;;;;;;16.70;99.90;;;;;;5097306;28;19908;-72
2022/11/10 04:58:59;;;;;;;;;;;16.70;99.90;;;;;;5096617;28;19908;-71
2022/11/10 05:01:26;;;;;;;;;;;16.70;99.90;;;;;;5084694;28;19955;-72
2022/11/10 05:03:51;;;;;;;;;;;16.70;99.90;;;;;;5070832;28;19920;-72
2022/11/10 05:06:17;;;;;;;;;;;16.60;99.90;;;;;;5077781;28;19909;-72
2022/11/10 05:08:43;;;;;;;;;;;16.50;99.90;;;;;;5078343;28;19916;-72
2022/11/10 05:11:09;;;;;;;;;;;16.60;99.90;;;;;;5089440;28;19915;-72
2022/11/10 05:13:35;;;;;;;;;;;16.60;99.90;;;;;;5081006;28;19916;-72
2022/11/10 05:16:01;;;;;;;;;;;16.50;99.90;;;;;;5082347;28;20410;-72
2022/11/10 05:18:26;;;;;;;;;;;16.50;99.90;;;;;;5093599;28;19908;-72
2022/11/10 05:20:52;;;;;;;;;;;16.50;99.90;;;;;;5096775;28;19909;-72
2022/11/10 05:23:36;;;;;;;;;;;16.40;99.90;;;;;;5096137;28;20358;-72
2022/11/10 05:26:02;;;;;;;;;;;16.50;99.90;;;;;;5081302;28;19916;-72
2022/11/10 05:28:28;;;;;;;;;;;16.50;99.90;;;;;;5081184;28;19920;-72
2022/11/10 05:30:54;;;;;;;;;;;16.50;99.90;;;;;;5042972;28;19912;-72
2022/11/10 05:33:20;;;;;;;;;;;16.60;99.90;;;;;;5075827;28;19909;-72
2022/11/10 05:35:47;;;;;;;;;;;16.70;99.90;;;;;;5083068;28;19919;-72
2022/11/10 05:38:12;;;;;;;;;;;16.70;99.90;;;;;;5087230;28;19908;-72
2022/11/10 05:40:38;;;;;;;;;;;16.70;99.90;;;;;;5096011;28;19908;-72
2022/11/10 05:43:04;;;;;;;;;;;16.70;99.90;;;;;;5077700;28;20011;-72
2022/11/10 05:45:29;;;;;;;;;;;16.80;99.90;;;;;;5081988;28;19920;-72
2022/11/10 05:47:56;;;;;;;;;;;16.80;99.90;;;;;;5087452;28;19908;-72
2022/11/10 05:50:22;;;;;;;;;;;16.80;99.90;;;;;;5096425;28;19908;-72
2022/11/10 05:52:49;;;;;;;;;;;16.70;99.90;;;;;;5096036;28;19909;-71
2022/11/10 05:55:15;;;;;;;;;;;16.70;99.90;;;;;;5082357;28;19912;-72
2022/11/10 05:57:42;;;;;;;;;;;16.60;99.90;;;;;;5086883;28;19908;-72
2022/11/10 06:00:08;;;;;;;;;;;16.70;99.90;;;;;;5095584;28;19916;-71
2022/11/10 06:02:34;;;;;;;;;;;16.70;99.90;;;;;;5062552;28;19916;-72
2022/11/10 06:05:00;;;;;;;;;;;16.60;99.90;;;;;;5066539;28;19962;-72
2022/11/10 06:07:26;;;;;;;;;;;16.70;99.90;;;;;;5070912;28;19909;-72
2022/11/10 06:09:51;;;;;;;;;;;16.60;99.90;;;;;;5056918;28;19940;-72
2022/11/10 06:12:17;;;;;;;;;;;16.70;99.90;;;;;;5073672;28;19917;-73
2022/11/10 06:14:42;;;;;;;;;;;16.70;99.90;;;;;;5070800;28;19912;-72
2022/11/10 06:17:08;;;;;;;;;;;16.70;99.90;;;;;;5056305;28;19908;-72
2022/11/10 06:19:34;;;;;;;;;;;16.80;99.90;;;;;;5064812;28;19908;-71
2022/11/10 06:21:59;;;;;;;;;;;16.80;99.90;;;;;;5074460;28;20015;-72
2022/11/10 06:24:25;;;;;;;;;;;16.80;99.90;;;;;;5067084;28;19916;-72
2022/11/10 06:26:51;;;;;;;;;;;16.80;99.90;;;;;;5081798;28;19912;-72
2022/11/10 06:29:16;;;;;;;;;;;16.80;99.90;;;;;;5074192;28;19909;-72
2022/11/10 06:31:42;;;;;;;;;;;16.80;99.90;;;;;;5071073;28;19908;-72
2022/11/10 06:34:08;;;;;;;;;;;16.80;99.90;;;;;;5082383;28;20374;-72
2022/11/10 06:36:33;;;;;;;;;;;16.80;99.90;;;;;;5080133;28;19962;-72
2022/11/10 06:38:59;;;;;;;;;;;16.70;99.90;;;;;;5074991;28;19959;-72
2022/11/10 06:41:25;;;;;;;;;;;16.70;99.90;;;;;;5081952;28;19916;-72
2022/11/10 06:43:50;;;;;;;;;;;16.70;99.90;;;;;;5080513;28;20062;-72
2022/11/10 06:46:16;;;;;;;;;;;16.80;99.90;;;;;;5088502;28;20332;-72
2022/11/10 06:48:41;;;;;;;;;;;16.80;99.90;;;;;;5072071;28;19934;-72
2022/11/10 06:51:07;;;;;;;;;;;16.80;99.90;;;;;;5085000;28;19936;-72
2022/11/10 06:53:33;;;;;;;;;;;16.70;99.90;;;;;;5093254;28;19912;-72
2022/11/10 06:55:59;;;;;;;;;;;16.80;99.90;;;;;;5075953;28;20038;-72
2022/11/10 06:58:24;;;;;;;;;;;16.90;99.90;;;;;;5094299;28;19961;-72
2022/11/10 07:00:50;;;;;;;;;;;16.80;99.90;;;;;;5086961;28;19915;-71
2022/11/10 07:03:16;;;;;;;;;;;16.90;99.90;;;;;;5086267;28;19916;-72
2022/11/10 07:05:41;;;;;;;;;;;16.90;99.90;;;;;;5090546;28;19908;-71
2022/11/10 07:08:17;;;;;;;;;;;17.00;99.90;;;;;;5082031;28;19988;-72
2022/11/10 07:10:50;;;;;;;;;;;17.00;99.90;;;;;;5080403;28;19908;-72
2022/11/10 07:13:16;;;;;;;;;;;17.00;99.90;;;;;;5053932;28;19916;-72
2022/11/10 07:15:41;;;;;;;;;;;16.90;99.90;;;;;;5053120;28;19979;-72
2022/11/10 07:18:07;;;;;;;;;;;16.90;99.90;;;;;;5057497;28;19909;-72
2022/11/10 07:20:33;;;;;;;;;;;16.90;99.90;;;;;;5082310;28;19916;-72
2022/11/10 07:22:59;;;;;;;;;;;16.90;99.90;;;;;;5075243;28;20623;-70
2022/11/10 07:25:25;;;;;;;;;;;16.90;99.90;;;;;;5093845;28;19919;-70
2022/11/10 07:27:57;;;;;;;;;;;17.00;99.90;;;;;;5093521;28;19995;-70
2022/11/10 07:30:22;;;;;;;;;;;17.00;99.90;;;;;;5072800;28;20006;-71
2022/11/10 07:33:04;;;;;;;;;;;16.90;99.90;;;;;;5076564;28;20009;-70
2022/11/10 07:35:30;;;;;;;;;;;17.00;99.90;;;;;;5062891;28;19948;-70
2022/11/10 07:37:56;;;;;;;;;;;17.00;99.90;;;;;;5074800;28;19923;-70
2022/11/10 07:40:22;;;;;;;;;;;17.10;99.90;;;;;;5079397;28;19919;-70
2022/11/10 07:42:48;;;;;;;;;;;17.10;99.90;;;;;;5089732;28;19912;-70
2022/11/10 07:45:14;;;;;;;;;;;17.10;99.90;;;;;;5093132;28;20315;-70
2022/11/10 07:47:39;;;;;;;;;;;17.00;99.90;;;;;;5093187;28;19912;-70
2022/11/10 07:50:05;;;;;;;;;;;17.10;99.90;;;;;;5080622;28;19967;-70
2022/11/10 07:52:31;;;;;;;;;;;17.10;99.90;;;;;;5074639;28;20007;-70
2022/11/10 07:54:56;;;;;;;;;;;17.10;99.90;;;;;;5091221;28;20455;-70
2022/11/10 07:57:22;;;;;;;;;;;17.00;99.90;;;;;;5089174;28;19947;-70
2022/11/10 07:59:48;;;;;;;;;;;16.90;99.90;;;;;;5081614;28;19959;-71
2022/11/10 08:02:13;;;;;;;;;;;16.90;99.90;;;;;;5080088;28;20282;-71
2022/11/10 08:04:39;;;;;;;;;;;16.90;99.90;;;;;;5057502;28;20389;-70
2022/11/10 08:07:05;;;;;;;;;;;16.90;99.90;;;;;;5091639;28;19908;-71
2022/11/10 08:09:30;;;;;;;;;;;16.90;99.90;;;;;;5074512;28;19919;-70
2022/11/10 08:11:56;;;;;;;;;;;16.90;99.90;;;;;;5066412;28;19908;-70
2022/11/10 08:14:22;;;;;;;;;;;16.90;99.90;;;;;;5074611;28;19908;-70
2022/11/10 08:16:47;;;;;;;;;;;16.80;99.90;;;;;;5092820;28;20285;-71
2022/11/10 08:19:13;;;;;;;;;;;16.70;99.90;;;;;;5083555;28;20015;-70
2022/11/10 08:21:38;;;;;;;;;;;16.60;99.90;;;;;;5087479;28;19923;-70
2022/11/10 08:24:04;;;;;;;;;;;16.60;99.90;;;;;;5093546;28;19923;-70
2022/11/10 08:26:30;;;;;;;;;;;16.60;99.90;;;;;;5075612;28;19931;-71
2022/11/10 08:28:56;;;;;;;;;;;16.50;99.90;;;;;;5081507;28;19919;-70
2022/11/10 08:31:22;;;;;;;;;;;16.50;99.90;;;;;;5064784;28;19970;-70
2022/11/10 08:33:48;;;;;;;;;;;16.40;99.90;;;;;;5053215;28;20378;-70
2022/11/10 08:36:14;;;;;;;;;;;16.40;99.90;;;;;;5052971;28;19912;-70
2022/11/10 08:38:39;;;;;;;;;;;16.40;99.90;;;;;;5060358;28;19995;-70
2022/11/10 08:41:05;;;;;;;;;;;16.40;99.90;;;;;;5082791;28;19909;-70
2022/11/10 08:43:30;;;;;;;;;;;16.40;99.90;;;;;;5072981;28;19912;-70
2022/11/10 08:45:56;;;;;;;;;;;16.40;99.90;;;;;;5091411;28;19939;-70
2022/11/10 08:48:22;;;;;;;;;;;16.40;99.90;;;;;;5066205;28;19912;-70
2022/11/10 08:50:48;;;;;;;;;;;16.40;99.90;;;;;;5090743;28;20365;-71
2022/11/10 08:53:15;;;;;;;;;;;16.30;99.90;;;;;;5077475;28;19908;-70
2022/11/10 08:55:42;;;;;;;;;;;16.30;99.90;;;;;;5095747;28;19999;-70
2022/11/10 08:58:10;;;;;;;;;;;16.30;99.90;;;;;;5091014;28;19912;-71
2022/11/10 09:00:36;;;;;;;;;;;16.30;99.90;;;;;;5072329;28;19912;-71
2022/11/10 09:03:06;;;;;;;;;;;16.20;99.90;;;;;;5076301;28;19917;-71
2022/11/10 09:05:32;;;;;;;;;;;16.20;99.90;;;;;;5067686;28;19908;-71
2022/11/10 09:07:57;;;;;;;;;;;16.20;99.90;;;;;;5091844;28;19924;-71
2022/11/10 09:10:23;;;;;;;;;;;16.20;99.90;;;;;;5086387;28;19958;-71
2022/11/10 09:12:51;;;;;;;;;;;16.10;99.90;;;;;;5093965;28;21388;-71
2022/11/10 09:15:18;;;;;;;;;;;16.10;99.90;;;;;;5094686;28;19954;-71
2022/11/10 09:17:44;;;;;;;;;;;16.00;99.90;;;;;;5071751;28;19920;-71
2022/11/10 09:20:11;;;;;;;;;;;16.10;99.90;;;;;;5092642;28;19912;-70
2022/11/10 09:22:37;;;;;;;;;;;16.10;99.90;;;;;;5076114;28;19920;-72
2022/11/10 09:25:03;;;;;;;;;;;16.10;99.90;;;;;;5075823;28;20300;-72
2022/11/10 09:27:28;;;;;;;;;;;16.00;99.90;;;;;;5075833;28;19920;-72
2022/11/10 09:29:54;;;;;;;;;;;16.00;99.90;;;;;;5083473;28;19913;-72
2022/11/10 09:32:20;;;;;;;;;;;15.90;99.90;;;;;;5066929;28;20054;-73
2022/11/10 09:34:45;;;;;;;;;;;15.90;99.90;;;;;;5082034;28;20276;-72
2022/11/10 09:37:11;;;;;;;;;;;15.90;99.90;;;;;;5057036;28;19913;-72
2022/11/10 09:39:37;;;;;;;;;;;15.90;99.90;;;;;;5085914;28;19912;-73
2022/11/10 09:42:18;;;;;;;;;;;16.00;99.90;;;;;;5061650;28;19928;-72
2022/11/10 09:45:04;;;;;;;;;;;15.90;99.90;;;;;;5057711;28;19935;-73
2022/11/10 09:47:34;;;;;;;;;;;15.90;99.90;;;;;;5056768;28;19912;-72
2022/11/10 09:50:00;;;;;;;;;;;15.90;99.90;;;;;;5064524;28;19912;-72
2022/11/10 09:52:28;;;;;;;;;;;15.90;99.90;;;;;;5081386;28;20348;-72
2022/11/10 09:55:01;;;;;;;;;;;16.00;99.90;;;;;;5079463;28;19923;-72
2022/11/10 09:57:28;;;;;;;;;;;15.90;99.90;;;;;;5058175;28;19920;-72
2022/11/10 09:59:54;;;;;;;;;;;16.00;99.90;;;;;;5078846;28;19923;-72
2022/11/10 10:02:30;;;;;;;;;;;16.00;99.90;;;;;;5059534;28;19916;-72
2022/11/10 10:05:01;;;;;;;;;;;15.90;99.90;;;;;;5082267;28;19912;-72
2022/11/10 10:07:38;;;;;;;;;;;16.00;99.90;;;;;;5095089;28;19912;-72
2022/11/10 10:10:31;;;;;;;;;;;16.00;99.90;;;;;;5084863;28;19943;-72
2022/11/10 10:13:06;;;;;;;;;;;16.00;99.90;;;;;;5080503;28;20012;-72
2022/11/10 10:15:43;;;;;;;;;;;16.00;99.90;;;;;;5073906;28;19912;-72
2022/11/10 10:18:21;;;;;;;;;;;16.00;99.90;;;;;;5076624;28;19912;-72
2022/11/10 10:20:57;;;;;;;;;;;16.00;99.90;;;;;;5084445;28;20362;-72
2022/11/10 10:23:34;;;;;;;;;;;15.90;99.90;;;;;;5077395;28;19921;-72
2022/11/10 10:26:00;;;;;;;;;;;16.00;99.90;;;;;;5055947;28;19923;-72
2022/11/10 10:28:36;;;;;;;;;;;15.90;99.90;;;;;;5066977;28;19912;-72
2022/11/10 10:31:14;;;;;;;;;;;15.80;99.90;;;;;;5085829;28;20513;-72
2022/11/10 10:33:40;;;;;;;;;;;15.90;99.90;;;;;;5075842;28;19913;-73
2022/11/10 10:36:08;;;;;;;;;;;15.90;99.90;;;;;;5056584;28;19915;-72
2022/11/10 10:38:36;;;;;;;;;;;15.80;99.90;;;;;;5063805;28;19913;-73
2022/11/10 10:41:10;;;;;;;;;;;15.80;99.90;;;;;;5086592;28;19912;-73
2022/11/10 10:43:35;;;;;;;;;;;15.70;99.90;;;;;;5056162;28;19917;-72
2022/11/10 10:46:03;;;;;;;;;;;15.60;99.90;;;;;;5075794;28;19923;-72
2022/11/10 10:48:29;;;;;;;;;;;15.30;99.90;;;;;;5078078;28;19913;-72
2022/11/10 10:50:55;;;;;;;;;;;15.20;99.90;;;;;;5089058;28;19919;-72
2022/11/10 10:53:24;;;;;;;;;;;15.00;99.90;;;;;;5072863;28;20062;-74
2022/11/10 10:56:08;;;;;;;;;;;14.90;99.90;;;;;;5072738;28;19919;-73
2022/11/10 10:58:35;;;;;;;;;;;14.70;99.90;;;;;;5069587;28;19950;-73
2022/11/10 11:01:04;;;;;;;;;;;14.60;99.90;;;;;;5065714;28;19912;-72
2022/11/10 11:03:38;;;;;;;;;;;14.60;99.90;;;;;;5074522;28;19916;-73
2022/11/10 11:06:10;;;;;;;;;;;14.50;99.90;;;;;;5083313;28;20449;-75
2022/11/10 11:08:36;;;;;;;;;;;14.50;99.90;;;;;;5084993;28;19920;-72
2022/11/10 11:11:06;;;;;;;;;;;14.40;99.90;;;;;;5079392;28;20286;-73
2022/11/10 11:13:32;;;;;;;;;;;14.40;99.90;;;;;;5063664;28;19916;-73
2022/11/10 11:16:02;;;;;;;;;;;14.40;99.90;;;;;;5054762;28;19913;-72
2022/11/10 11:18:29;;;;;;;;;;;14.40;99.90;;;;;;5071499;28;19912;-73
2022/11/10 11:20:55;;;;;;;;;;;14.40;99.90;;;;;;5051073;28;20007;-72
2022/11/10 11:23:43;;;;;;;;;;;14.40;99.90;;;;;;5081488;28;20003;-72
2022/11/10 11:26:17;;;;;;;;;;;14.40;99.90;;;;;;5074562;28;19916;-73
2022/11/10 11:28:48;;;;;;;;;;;14.50;99.90;;;;;;5069543;28;19948;-72
2022/11/10 11:31:14;;;;;;;;;;;14.40;99.90;;;;;;5073802;28;19909;-72
2022/11/10 11:33:51;;;;;;;;;;;14.40;99.90;;;;;;5075086;28;19919;-76
2022/11/10 11:36:36;;;;;;;;;;;14.40;99.90;;;;;;5055487;28;20428;-72
2022/11/10 11:39:21;;;;;;;;;;;14.50;99.90;;;;;;5087509;28;19913;-72
2022/11/10 11:42:05;;;;;;;;;;;14.50;99.90;;;;;;5062346;28;19924;-72
2022/11/10 11:44:31;;;;;;;;;;;14.40;99.90;;;;;;5072830;28;19912;-71
2022/11/10 11:47:15;;;;;;;;;;;14.40;99.90;;;;;;5073075;28;19943;-72
2022/11/10 11:50:13;;;;;;;;;;;14.40;99.90;;;;;;5078938;28;19918;-72
2022/11/10 11:52:38;;;;;;;;;;;14.40;99.90;;;;;;5048946;28;19943;-73
2022/11/10 11:55:27;;;;;;;;;;;14.40;99.90;;;;;;5072499;28;20515;-73
2022/11/10 11:57:52;;;;;;;;;;;14.40;99.90;;;;;;5070811;28;19920;-73
2022/11/10 12:00:18;;;;;;;;;;;14.30;99.90;;;;;;5073953;28;19909;-73
2022/11/10 12:03:02;;;;;;;;;;;14.30;99.90;;;;;;5071737;28;19924;-72
2022/11/10 12:05:43;;;;;;;;;;;14.30;99.90;;;;;;5049908;28;19908;-72
2022/11/10 12:08:17;;;;;;;;;;;14.20;99.90;;;;;;5072557;28;19958;-72
2022/11/10 12:10:52;;;;;;;;;;;14.20;99.90;;;;;;5078741;28;19958;-72
2022/11/10 12:13:37;;;;;;;;;;;14.20;99.90;;;;;;5054891;28;19913;-72
2022/11/10 12:16:22;;;;;;;;;;;14.30;99.90;;;;;;5079432;28;19960;-72
2022/11/10 12:18:56;;;;;;;;;;;14.20;99.90;;;;;;5047816;28;19967;-71
2022/11/10 12:21:42;;;;;;;;;;;14.20;99.90;;;;;;5082326;28;20392;-72
2022/11/10 12:24:11;;;;;;;;;;;14.30;99.90;;;;;;5071566;28;19916;-71
2022/11/10 12:26:36;;;;;;;;;;;14.30;99.90;;;;;;5080368;28;19958;-71
2022/11/10 12:29:11;;;;;;;;;;;14.30;99.90;;;;;;5079351;28;20286;-71
2022/11/10 12:31:38;;;;;;;;;;;14.30;99.90;;;;;;5079316;28;20050;-71
2022/11/10 12:34:08;;;;;;;;;;;14.30;99.90;;;;;;5078998;28;19920;-71
2022/11/10 12:36:34;;;;;;;;;;;14.30;99.90;;;;;;5080135;28;20313;-71
2022/11/10 12:39:03;;;;;;;;;;;14.40;99.90;;;;;;5082997;28;19958;-71
2022/11/10 12:41:36;;;;;;;;;;;14.40;99.90;;;;;;5083365;28;20377;-72
2022/11/10 12:44:06;;;;;;;;;;;14.40;99.90;;;;;;5077407;28;19916;-72
2022/11/10 12:46:32;;;;;;;;;;;14.40;99.90;;;;;;5069976;28;20003;-72
2022/11/10 12:49:04;;;;;;;;;;;14.50;99.90;;;;;;5084374;28;20595;-72
2022/11/10 12:51:49;;;;;;;;;;;14.60;99.90;;;;;;5076619;28;19951;-72
2022/11/10 12:54:15;;;;;;;;;;;14.60;99.90;;;;;;5083169;28;19912;-71
2022/11/10 12:56:44;;;;;;;;;;;14.60;99.90;;;;;;5069414;28;20014;-72
2022/11/10 12:59:18;;;;;;;;;;;14.70;99.90;;;;;;5065425;28;20381;-72
2022/11/10 13:01:45;;;;;;;;;;;14.70;99.90;;;;;;5055639;28;19917;-72
2022/11/10 13:04:14;;;;;;;;;;;14.70;99.90;;;;;;5081366;28;19926;-72
2022/11/10 13:09:38;;;;;;;;;;;14.70;99.90;;;;;;5079898;28;19920;-71
2022/11/10 13:12:04;;;;;;;;;;;14.80;99.90;;;;;;5077862;28;19920;-72
2022/11/10 13:14:30;;;;;;;;;;;14.80;99.90;;;;;;5075256;28;20394;-72
2022/11/10 13:17:35;;;;;;;;;;;;;;;;;;;;;
2022/11/10 13:20:25;;;;;;;;;;;14.90;99.90;;;;;;4974211;28;20482;-72
2022/11/10 13:22:54;;;;;;;;;;;14.90;99.90;;;;;;5069788;28;19917;-73
2022/11/10 13:25:36;;;;;;;;;;;14.90;99.90;;;;;;5059986;28;20305;-71
2022/11/10 13:28:03;;;;;;;;;;;14.90;99.90;;;;;;5090264;28;20323;-71
2022/11/10 13:30:40;;;;;;;;;;;14.90;99.90;;;;;;5082350;28;19917;-72
2022/11/10 13:33:42;;;;;;;;;;;14.90;99.90;;;;;;5080871;28;19912;-71
2022/11/10 13:36:38;;;;;;;;;;;14.90;99.90;;;;;;5060518;28;19945;-73
2022/11/10 13:39:25;;;;;;;;;;;14.90;99.90;;;;;;5056739;28;19921;-71
2022/11/10 13:42:02;;;;;;;;;;;14.90;99.90;;;;;;5074952;28;19913;-72
2022/11/10 13:44:31;;;;;;;;;;;14.90;99.90;;;;;;5062987;28;19912;-71
2022/11/10 13:47:09;;;;;;;;;;;14.90;99.90;;;;;;5061949;28;19952;-71
2022/11/10 13:49:34;;;;;;;;;;;14.90;99.90;;;;;;5073273;28;20281;-71
2022/11/10 13:52:09;;;;;;;;;;;14.90;99.90;;;;;;5079335;28;20000;-71
2022/11/10 13:54:40;;;;;;;;;;;14.90;99.90;;;;;;5078562;28;19916;-71
2022/11/10 13:57:06;;;;;;;;;;;15.00;99.90;;;;;;5073915;28;19998;-71
2022/11/10 13:59:41;;;;;;;;;;;15.00;99.90;;;;;;5074026;28;20011;-72
2022/11/10 14:02:26;;;;;;;;;;;15.10;99.90;;;;;;5088511;28;19916;-71
2022/11/10 14:04:51;;;;;;;;;;;15.00;99.90;;;;;;5055038;28;19961;-72
2022/11/10 14:07:18;;;;;;;;;;;15.10;99.90;;;;;;5067148;28;19912;-72
2022/11/10 14:09:49;;;;;;;;;;;15.00;99.90;;;;;;5054714;28;19913;-71
2022/11/10 14:12:27;;;;;;;;;;;15.10;99.90;;;;;;5065634;28;20323;-71
2022/11/10 14:15:21;;;;;;;;;;;15.10;99.90;;;;;;5055444;28;19974;-71
2022/11/10 14:17:51;;;;;;;;;;;15.10;99.90;;;;;;5040627;28;19920;-71
2022/11/10 14:20:20;;;;;;;;;;;15.10;99.90;;;;;;5072825;28;19931;-71
2022/11/10 14:22:48;;;;;;;;;;;15.10;99.90;;;;;;5076665;28;20011;-71
2022/11/10 14:25:19;;;;;;;;;;;15.20;99.90;;;;;;5066604;28;19920;-71
2022/11/10 14:27:45;;;;;;;;;;;15.20;99.90;;;;;;5072954;28;19909;-71
2022/11/10 14:30:17;;;;;;;;;;;15.20;99.90;;;;;;5074712;28;20015;-72
2022/11/10 14:32:42;;;;;;;;;;;15.20;99.90;;;;;;5068957;28;19912;-71
2022/11/10 14:35:51;;;;;;;;;;;15.20;99.90;;;;;;5071385;28;19920;-70
2022/11/10 14:38:21;;;;;;;;;;;15.30;99.90;;;;;;5036844;28;19923;-73
2022/11/10 14:44:14;;;;;;;;;;;15.30;99.90;;;;;;5010441;28;19918;-71
2022/11/10 14:46:54;;;;;;;;;;;15.30;99.90;;;;;;5007850;28;19913;-73